sensor_id;sensor_type;location;lat;lon;timestamp;P1;durP1;ratioP1;P2;durP2;ratioP2
48199;SDS011;33990;44.602;10.976;2023-04-25T00:01:10;3.15;;;1.40;;
48199;SDS011;33990;44.602;10.976;2023-04-25T00:03:40;2.55;;;1.10;;
48199;SDS011;33990;44.602;10.976;2023-04-25T00:06:07;2.55;;;1.10;;
48199;SDS011;33990;44.602;10.976;2023-04-25T00:08:35;5.07;;;1.40;;
48199;SDS011;33990;44.602;10.976;2023-04-25T00:11:02;1.77;;;1.00;;
48199;SDS011;33990;44.602;10.976;2023-04-25T00:13:30;2.95;;;1.08;;
48199;SDS011;33990;44.602;10.976;2023-04-25T00:15:57;2.83;;;1.20;;
48199;SDS011;33990;44.602;10.976;2023-04-25T00:18:25;1.85;;;0.77;;
48199;SDS011;33990;44.602;10.976;2023-04-25T00:20:55;2.72;;;1.15;;
48199;SDS011;33990;44.602;10.976;2023-04-25T00:23:23;3.10;;;1.23;;
48199;SDS011;33990;44.602;10.976;2023-04-25T00:25:50;4.78;;;1.00;;
48199;SDS011;33990;44.602;10.976;2023-04-25T00:28:18;3.40;;;1.20;;
48199;SDS011;33990;44.602;10.976;2023-04-25T00:30:45;2.95;;;0.90;;
48199;SDS011;33990;44.602;10.976;2023-04-25T00:33:13;4.28;;;1.20;;
48199;SDS011;33990;44.602;10.976;2023-04-25T00:35:40;6.82;;;1.38;;
48199;SDS011;33990;44.602;10.976;2023-04-25T00:38:07;2.65;;;1.23;;
48199;SDS011;33990;44.602;10.976;2023-04-25T00:40:35;3.38;;;1.17;;
48199;SDS011;33990;44.602;10.976;2023-04-25T00:43:02;3.88;;;1.25;;
48199;SDS011;33990;44.602;10.976;2023-04-25T00:45:30;3.28;;;1.42;;
48199;SDS011;33990;44.602;10.976;2023-04-25T00:47:57;1.85;;;1.00;;
48199;SDS011;33990;44.602;10.976;2023-04-25T00:50:24;4.85;;;1.40;;
48199;SDS011;33990;44.602;10.976;2023-04-25T00:52:52;3.17;;;1.08;;
48199;SDS011;33990;44.602;10.976;2023-04-25T00:55:19;2.95;;;1.08;;
48199;SDS011;33990;44.602;10.976;2023-04-25T00:57:46;1.88;;;0.80;;
48199;SDS011;33990;44.602;10.976;2023-04-25T01:00:14;2.95;;;0.90;;
48199;SDS011;33990;44.602;10.976;2023-04-25T01:02:43;3.72;;;1.17;;
48199;SDS011;33990;44.602;10.976;2023-04-25T01:05:12;2.60;;;0.93;;
48199;SDS011;33990;44.602;10.976;2023-04-25T01:07:40;2.60;;;1.08;;
48199;SDS011;33990;44.602;10.976;2023-04-25T01:10:08;2.72;;;1.42;;
48199;SDS011;33990;44.602;10.976;2023-04-25T01:12:37;2.55;;;1.02;;
48199;SDS011;33990;44.602;10.976;2023-04-25T01:15:04;1.77;;;0.82;;
48199;SDS011;33990;44.602;10.976;2023-04-25T01:17:33;4.13;;;1.02;;
48199;SDS011;33990;44.602;10.976;2023-04-25T01:20:04;2.80;;;1.13;;
48199;SDS011;33990;44.602;10.976;2023-04-25T01:22:32;4.00;;;1.23;;
48199;SDS011;33990;44.602;10.976;2023-04-25T01:25:00;3.00;;;0.80;;
48199;SDS011;33990;44.602;10.976;2023-04-25T01:27:27;2.15;;;0.88;;
48199;SDS011;33990;44.602;10.976;2023-04-25T01:29:55;3.05;;;0.90;;
48199;SDS011;33990;44.602;10.976;2023-04-25T01:32:25;3.22;;;1.20;;
48199;SDS011;33990;44.602;10.976;2023-04-25T01:34:54;2.30;;;1.05;;
48199;SDS011;33990;44.602;10.976;2023-04-25T01:37:22;3.92;;;1.00;;
48199;SDS011;33990;44.602;10.976;2023-04-25T01:39:49;1.70;;;0.80;;
48199;SDS011;33990;44.602;10.976;2023-04-25T01:42:18;1.52;;;0.75;;
48199;SDS011;33990;44.602;10.976;2023-04-25T01:44:45;2.67;;;0.90;;
48199;SDS011;33990;44.602;10.976;2023-04-25T01:47:13;2.85;;;0.80;;
48199;SDS011;33990;44.602;10.976;2023-04-25T01:49:40;2.50;;;1.10;;
48199;SDS011;33990;44.602;10.976;2023-04-25T01:52:08;2.17;;;1.08;;
48199;SDS011;33990;44.602;10.976;2023-04-25T01:54:35;2.50;;;1.13;;
48199;SDS011;33990;44.602;10.976;2023-04-25T01:57:02;2.03;;;0.77;;
48199;SDS011;33990;44.602;10.976;2023-04-25T01:59:33;3.08;;;1.02;;
48199;SDS011;33990;44.602;10.976;2023-04-25T02:02:09;2.20;;;0.80;;
48199;SDS011;33990;44.602;10.976;2023-04-25T02:04:36;1.63;;;0.80;;
48199;SDS011;33990;44.602;10.976;2023-04-25T02:07:04;2.20;;;0.98;;
48199;SDS011;33990;44.602;10.976;2023-04-25T02:09:42;3.42;;;1.10;;
48199;SDS011;33990;44.602;10.976;2023-04-25T02:12:11;3.55;;;0.90;;
48199;SDS011;33990;44.602;10.976;2023-04-25T02:14:57;3.33;;;0.93;;
48199;SDS011;33990;44.602;10.976;2023-04-25T02:17:33;2.97;;;1.35;;
48199;SDS011;33990;44.602;10.976;2023-04-25T02:20:00;3.58;;;1.00;;
48199;SDS011;33990;44.602;10.976;2023-04-25T02:22:28;3.67;;;1.00;;
48199;SDS011;33990;44.602;10.976;2023-04-25T02:24:57;2.45;;;0.93;;
48199;SDS011;33990;44.602;10.976;2023-04-25T02:27:25;3.17;;;1.02;;
48199;SDS011;33990;44.602;10.976;2023-04-25T02:29:52;2.78;;;1.00;;
48199;SDS011;33990;44.602;10.976;2023-04-25T02:32:19;3.00;;;1.45;;
48199;SDS011;33990;44.602;10.976;2023-04-25T02:34:47;5.25;;;1.17;;
48199;SDS011;33990;44.602;10.976;2023-04-25T02:37:14;3.40;;;1.35;;
48199;SDS011;33990;44.602;10.976;2023-04-25T02:39:44;4.40;;;1.02;;
48199;SDS011;33990;44.602;10.976;2023-04-25T02:42:12;2.58;;;1.25;;
48199;SDS011;33990;44.602;10.976;2023-04-25T02:44:39;4.10;;;1.10;;
48199;SDS011;33990;44.602;10.976;2023-04-25T02:47:06;3.78;;;1.20;;
48199;SDS011;33990;44.602;10.976;2023-04-25T02:49:34;2.42;;;1.13;;
48199;SDS011;33990;44.602;10.976;2023-04-25T02:52:01;5.65;;;1.17;;
48199;SDS011;33990;44.602;10.976;2023-04-25T02:54:29;2.30;;;1.00;;
48199;SDS011;33990;44.602;10.976;2023-04-25T02:56:57;2.58;;;1.17;;
48199;SDS011;33990;44.602;10.976;2023-04-25T02:59:30;2.50;;;1.03;;
48199;SDS011;33990;44.602;10.976;2023-04-25T03:01:57;3.95;;;1.15;;
48199;SDS011;33990;44.602;10.976;2023-04-25T03:04:24;4.68;;;1.30;;
48199;SDS011;33990;44.602;10.976;2023-04-25T03:06:52;2.38;;;1.10;;
48199;SDS011;33990;44.602;10.976;2023-04-25T03:09:21;2.65;;;1.20;;
48199;SDS011;33990;44.602;10.976;2023-04-25T03:11:49;2.90;;;1.05;;
48199;SDS011;33990;44.602;10.976;2023-04-25T03:14:17;3.53;;;1.30;;
48199;SDS011;33990;44.602;10.976;2023-04-25T03:16:44;3.45;;;1.10;;
48199;SDS011;33990;44.602;10.976;2023-04-25T03:19:12;4.70;;;1.65;;
48199;SDS011;33990;44.602;10.976;2023-04-25T03:21:39;2.53;;;1.33;;
48199;SDS011;33990;44.602;10.976;2023-04-25T03:24:06;2.33;;;1.00;;
48199;SDS011;33990;44.602;10.976;2023-04-25T03:26:34;3.05;;;1.15;;
48199;SDS011;33990;44.602;10.976;2023-04-25T03:29:01;2.72;;;1.25;;
48199;SDS011;33990;44.602;10.976;2023-04-25T03:31:29;4.05;;;1.17;;
48199;SDS011;33990;44.602;10.976;2023-04-25T03:33:56;2.20;;;0.95;;
48199;SDS011;33990;44.602;10.976;2023-04-25T03:36:23;2.92;;;1.30;;
48199;SDS011;33990;44.602;10.976;2023-04-25T03:38:51;4.78;;;1.25;;
48199;SDS011;33990;44.602;10.976;2023-04-25T03:41:20;2.92;;;0.98;;
48199;SDS011;33990;44.602;10.976;2023-04-25T03:43:59;2.95;;;1.10;;
48199;SDS011;33990;44.602;10.976;2023-04-25T03:46:27;3.17;;;1.20;;
48199;SDS011;33990;44.602;10.976;2023-04-25T03:48:54;2.55;;;1.10;;
48199;SDS011;33990;44.602;10.976;2023-04-25T03:51:27;3.25;;;1.15;;
48199;SDS011;33990;44.602;10.976;2023-04-25T03:53:55;2.25;;;1.15;;
48199;SDS011;33990;44.602;10.976;2023-04-25T03:56:40;2.80;;;1.23;;
48199;SDS011;33990;44.602;10.976;2023-04-25T03:59:17;2.05;;;1.05;;
48199;SDS011;33990;44.602;10.976;2023-04-25T04:01:44;2.75;;;1.50;;
48199;SDS011;33990;44.602;10.976;2023-04-25T04:04:12;3.28;;;1.33;;
48199;SDS011;33990;44.602;10.976;2023-04-25T04:06:40;2.45;;;1.10;;
48199;SDS011;33990;44.602;10.976;2023-04-25T04:09:14;3.13;;;1.10;;
48199;SDS011;33990;44.602;10.976;2023-04-25T04:11:43;2.72;;;1.30;;
48199;SDS011;33990;44.602;10.976;2023-04-25T04:14:11;2.00;;;0.90;;
48199;SDS011;33990;44.602;10.976;2023-04-25T04:16:43;3.65;;;1.02;;
48199;SDS011;33990;44.602;10.976;2023-04-25T04:19:10;1.77;;;1.00;;
48199;SDS011;33990;44.602;10.976;2023-04-25T04:21:42;2.50;;;1.13;;
48199;SDS011;33990;44.602;10.976;2023-04-25T04:24:10;2.25;;;1.00;;
48199;SDS011;33990;44.602;10.976;2023-04-25T04:27:00;1.60;;;0.82;;
48199;SDS011;33990;44.602;10.976;2023-04-25T04:29:35;2.97;;;1.27;;
48199;SDS011;33990;44.602;10.976;2023-04-25T04:32:10;1.77;;;0.93;;
48199;SDS011;33990;44.602;10.976;2023-04-25T04:34:37;3.08;;;1.20;;
48199;SDS011;33990;44.602;10.976;2023-04-25T04:37:06;2.85;;;1.30;;
48199;SDS011;33990;44.602;10.976;2023-04-25T04:39:35;1.95;;;1.15;;
48199;SDS011;33990;44.602;10.976;2023-04-25T04:42:09;4.45;;;1.13;;
48199;SDS011;33990;44.602;10.976;2023-04-25T04:44:54;1.80;;;0.93;;
48199;SDS011;33990;44.602;10.976;2023-04-25T04:47:42;3.05;;;1.30;;
48199;SDS011;33990;44.602;10.976;2023-04-25T04:50:35;1.98;;;1.10;;
48199;SDS011;33990;44.602;10.976;2023-04-25T04:53:22;2.60;;;1.13;;
48199;SDS011;33990;44.602;10.976;2023-04-25T04:55:52;2.33;;;0.98;;
48199;SDS011;33990;44.602;10.976;2023-04-25T04:58:32;3.00;;;1.40;;
48199;SDS011;33990;44.602;10.976;2023-04-25T05:01:22;2.55;;;1.20;;
48199;SDS011;33990;44.602;10.976;2023-04-25T05:03:56;3.10;;;1.50;;
48199;SDS011;33990;44.602;10.976;2023-04-25T05:06:46;3.05;;;1.10;;
48199;SDS011;33990;44.602;10.976;2023-04-25T05:09:41;2.70;;;1.05;;
48199;SDS011;33990;44.602;10.976;2023-04-25T05:12:10;2.65;;;0.95;;
48199;SDS011;33990;44.602;10.976;2023-04-25T05:14:50;2.13;;;1.35;;
48199;SDS011;33990;44.602;10.976;2023-04-25T05:17:41;2.10;;;0.90;;
48199;SDS011;33990;44.602;10.976;2023-04-25T05:20:20;2.95;;;0.95;;
48199;SDS011;33990;44.602;10.976;2023-04-25T05:22:50;2.55;;;1.30;;
48199;SDS011;33990;44.602;10.976;2023-04-25T05:25:22;2.05;;;1.17;;
48199;SDS011;33990;44.602;10.976;2023-04-25T05:27:50;3.60;;;1.20;;
48199;SDS011;33990;44.602;10.976;2023-04-25T05:30:48;2.60;;;1.10;;
48199;SDS011;33990;44.602;10.976;2023-04-25T05:33:20;2.03;;;1.05;;
48199;SDS011;33990;44.602;10.976;2023-04-25T05:35:47;3.05;;;1.00;;
48199;SDS011;33990;44.602;10.976;2023-04-25T05:38:15;2.60;;;1.00;;
48199;SDS011;33990;44.602;10.976;2023-04-25T05:41:15;3.00;;;1.05;;
48199;SDS011;33990;44.602;10.976;2023-04-25T05:43:59;2.97;;;0.95;;
48199;SDS011;33990;44.602;10.976;2023-04-25T05:46:41;2.35;;;1.17;;
48199;SDS011;33990;44.602;10.976;2023-04-25T05:49:09;2.67;;;1.13;;
48199;SDS011;33990;44.602;10.976;2023-04-25T05:51:53;2.30;;;0.95;;
48199;SDS011;33990;44.602;10.976;2023-04-25T05:54:40;2.75;;;1.30;;
48199;SDS011;33990;44.602;10.976;2023-04-25T05:57:08;1.75;;;0.90;;
48199;SDS011;33990;44.602;10.976;2023-04-25T05:59:35;4.40;;;1.17;;
48199;SDS011;33990;44.602;10.976;2023-04-25T06:02:03;2.83;;;1.02;;
48199;SDS011;33990;44.602;10.976;2023-04-25T06:04:33;1.95;;;1.05;;
48199;SDS011;33990;44.602;10.976;2023-04-25T06:07:00;2.70;;;1.10;;
48199;SDS011;33990;44.602;10.976;2023-04-25T06:09:28;2.55;;;1.20;;
48199;SDS011;33990;44.602;10.976;2023-04-25T06:11:56;3.75;;;1.50;;
48199;SDS011;33990;44.602;10.976;2023-04-25T06:14:23;4.63;;;1.35;;
48199;SDS011;33990;44.602;10.976;2023-04-25T06:16:52;3.30;;;1.42;;
48199;SDS011;33990;44.602;10.976;2023-04-25T06:19:20;3.53;;;1.25;;
48199;SDS011;33990;44.602;10.976;2023-04-25T06:21:47;1.75;;;0.82;;
48199;SDS011;33990;44.602;10.976;2023-04-25T06:24:14;2.50;;;1.20;;
48199;SDS011;33990;44.602;10.976;2023-04-25T06:26:44;3.72;;;1.25;;
48199;SDS011;33990;44.602;10.976;2023-04-25T06:29:12;3.00;;;1.10;;
48199;SDS011;33990;44.602;10.976;2023-04-25T06:31:39;3.53;;;1.02;;
48199;SDS011;33990;44.602;10.976;2023-04-25T06:34:07;2.58;;;1.10;;
48199;SDS011;33990;44.602;10.976;2023-04-25T06:36:37;2.50;;;1.13;;
48199;SDS011;33990;44.602;10.976;2023-04-25T06:39:07;2.75;;;1.10;;
48199;SDS011;33990;44.602;10.976;2023-04-25T06:41:35;2.22;;;1.15;;
48199;SDS011;33990;44.602;10.976;2023-04-25T06:44:06;2.92;;;0.80;;
48199;SDS011;33990;44.602;10.976;2023-04-25T06:46:51;2.25;;;0.95;;
48199;SDS011;33990;44.602;10.976;2023-04-25T06:49:19;2.28;;;1.08;;
48199;SDS011;33990;44.602;10.976;2023-04-25T06:51:46;2.20;;;1.20;;
48199;SDS011;33990;44.602;10.976;2023-04-25T06:54:14;1.92;;;1.05;;
48199;SDS011;33990;44.602;10.976;2023-04-25T06:56:51;5.60;;;1.42;;
48199;SDS011;33990;44.602;10.976;2023-04-25T06:59:18;3.80;;;1.20;;
48199;SDS011;33990;44.602;10.976;2023-04-25T07:01:46;2.92;;;1.20;;
48199;SDS011;33990;44.602;10.976;2023-04-25T07:04:17;3.72;;;1.25;;
48199;SDS011;33990;44.602;10.976;2023-04-25T07:06:49;4.18;;;1.23;;
48199;SDS011;33990;44.602;10.976;2023-04-25T07:09:22;2.73;;;1.23;;
48199;SDS011;33990;44.602;10.976;2023-04-25T07:11:50;2.75;;;1.20;;
48199;SDS011;33990;44.602;10.976;2023-04-25T07:14:17;4.38;;;1.38;;
48199;SDS011;33990;44.602;10.976;2023-04-25T07:16:46;3.42;;;1.77;;
48199;SDS011;33990;44.602;10.976;2023-04-25T07:19:13;2.95;;;1.33;;
48199;SDS011;33990;44.602;10.976;2023-04-25T07:21:41;5.57;;;1.58;;
48199;SDS011;33990;44.602;10.976;2023-04-25T07:24:10;2.25;;;1.05;;
48199;SDS011;33990;44.602;10.976;2023-04-25T07:26:41;2.88;;;1.30;;
48199;SDS011;33990;44.602;10.976;2023-04-25T07:29:29;2.15;;;1.17;;
48199;SDS011;33990;44.602;10.976;2023-04-25T07:31:59;3.78;;;1.25;;
48199;SDS011;33990;44.602;10.976;2023-04-25T07:34:27;2.47;;;1.00;;
48199;SDS011;33990;44.602;10.976;2023-04-25T07:36:54;2.03;;;1.00;;
48199;SDS011;33990;44.602;10.976;2023-04-25T07:39:24;3.05;;;1.08;;
48199;SDS011;33990;44.602;10.976;2023-04-25T07:41:51;2.75;;;1.00;;
48199;SDS011;33990;44.602;10.976;2023-04-25T07:46:53;2.45;;;1.02;;
48199;SDS011;33990;44.602;10.976;2023-04-25T07:49:20;2.53;;;0.90;;
48199;SDS011;33990;44.602;10.976;2023-04-25T07:51:48;2.50;;;1.40;;
48199;SDS011;33990;44.602;10.976;2023-04-25T07:54:18;3.75;;;1.50;;
48199;SDS011;33990;44.602;10.976;2023-04-25T07:56:51;2.22;;;1.10;;
48199;SDS011;33990;44.602;10.976;2023-04-25T07:59:26;3.40;;;1.95;;
48199;SDS011;33990;44.602;10.976;2023-04-25T08:01:57;2.97;;;1.60;;
48199;SDS011;33990;44.602;10.976;2023-04-25T08:04:25;3.40;;;1.58;;
48199;SDS011;33990;44.602;10.976;2023-04-25T08:07:04;4.45;;;1.77;;
48199;SDS011;33990;44.602;10.976;2023-04-25T08:09:39;2.83;;;1.10;;
48199;SDS011;33990;44.602;10.976;2023-04-25T08:12:12;2.00;;;1.02;;
48199;SDS011;33990;44.602;10.976;2023-04-25T08:14:40;3.03;;;1.10;;
48199;SDS011;33990;44.602;10.976;2023-04-25T08:17:07;2.92;;;1.08;;
48199;SDS011;33990;44.602;10.976;2023-04-25T08:19:39;1.60;;;0.70;;
48199;SDS011;33990;44.602;10.976;2023-04-25T08:24:52;1.70;;;0.50;;
48199;SDS011;33990;44.602;10.976;2023-04-25T08:27:20;1.90;;;0.85;;
48199;SDS011;33990;44.602;10.976;2023-04-25T08:29:48;1.77;;;0.57;;
48199;SDS011;33990;44.602;10.976;2023-04-25T08:32:16;2.00;;;0.68;;
48199;SDS011;33990;44.602;10.976;2023-04-25T08:34:59;4.28;;;0.70;;
48199;SDS011;33990;44.602;10.976;2023-04-25T08:37:26;2.55;;;0.70;;
48199;SDS011;33990;44.602;10.976;2023-04-25T08:40:01;1.17;;;0.43;;
48199;SDS011;33990;44.602;10.976;2023-04-25T08:42:45;2.65;;;0.38;;
48199;SDS011;33990;44.602;10.976;2023-04-25T08:45:15;1.40;;;0.47;;
48199;SDS011;33990;44.602;10.976;2023-04-25T08:47:43;1.55;;;0.60;;
48199;SDS011;33990;44.602;10.976;2023-04-25T08:50:13;1.25;;;0.50;;
48199;SDS011;33990;44.602;10.976;2023-04-25T08:52:43;2.17;;;0.60;;
48199;SDS011;33990;44.602;10.976;2023-04-25T08:55:12;1.25;;;0.63;;
48199;SDS011;33990;44.602;10.976;2023-04-25T08:57:41;1.00;;;0.30;;
48199;SDS011;33990;44.602;10.976;2023-04-25T09:00:12;1.63;;;0.60;;
48199;SDS011;33990;44.602;10.976;2023-04-25T09:02:42;0.90;;;0.40;;
48199;SDS011;33990;44.602;10.976;2023-04-25T09:05:12;1.58;;;0.47;;
48199;SDS011;33990;44.602;10.976;2023-04-25T09:07:41;3.08;;;0.50;;
48199;SDS011;33990;44.602;10.976;2023-04-25T09:10:08;1.45;;;0.35;;
48199;SDS011;33990;44.602;10.976;2023-04-25T09:12:37;2.22;;;0.38;;
48199;SDS011;33990;44.602;10.976;2023-04-25T09:15:08;6.45;;;0.63;;
48199;SDS011;33990;44.602;10.976;2023-04-25T09:17:47;1.10;;;0.60;;
48199;SDS011;33990;44.602;10.976;2023-04-25T09:20:22;2.72;;;0.60;;
48199;SDS011;33990;44.602;10.976;2023-04-25T09:23:04;1.50;;;0.52;;
48199;SDS011;33990;44.602;10.976;2023-04-25T09:25:35;1.35;;;0.40;;
48199;SDS011;33990;44.602;10.976;2023-04-25T09:28:08;2.38;;;0.60;;
48199;SDS011;33990;44.602;10.976;2023-04-25T09:30:36;2.05;;;0.40;;
48199;SDS011;33990;44.602;10.976;2023-04-25T09:33:17;3.00;;;0.55;;
48199;SDS011;33990;44.602;10.976;2023-04-25T09:35:48;1.77;;;0.80;;
48199;SDS011;33990;44.602;10.976;2023-04-25T09:38:41;0.70;;;0.30;;
48199;SDS011;33990;44.602;10.976;2023-04-25T09:41:15;1.23;;;0.45;;
48199;SDS011;33990;44.602;10.976;2023-04-25T09:43:50;1.35;;;0.43;;
48199;SDS011;33990;44.602;10.976;2023-04-25T09:46:18;2.05;;;0.52;;
48199;SDS011;33990;44.602;10.976;2023-04-25T09:48:52;2.40;;;0.50;;
48199;SDS011;33990;44.602;10.976;2023-04-25T09:51:32;0.80;;;0.30;;
48199;SDS011;33990;44.602;10.976;2023-04-25T09:54:00;1.17;;;0.30;;
48199;SDS011;33990;44.602;10.976;2023-04-25T09:56:35;1.92;;;0.90;;
48199;SDS011;33990;44.602;10.976;2023-04-25T09:59:06;1.60;;;0.70;;
48199;SDS011;33990;44.602;10.976;2023-04-25T10:01:36;3.00;;;0.52;;
48199;SDS011;33990;44.602;10.976;2023-04-25T10:04:13;3.50;;;0.63;;
48199;SDS011;33990;44.602;10.976;2023-04-25T10:07:09;1.30;;;0.50;;
48199;SDS011;33990;44.602;10.976;2023-04-25T10:09:37;3.08;;;0.60;;
48199;SDS011;33990;44.602;10.976;2023-04-25T10:12:07;1.42;;;0.65;;
48199;SDS011;33990;44.602;10.976;2023-04-25T10:14:34;1.23;;;0.50;;
48199;SDS011;33990;44.602;10.976;2023-04-25T10:17:02;1.13;;;0.40;;
48199;SDS011;33990;44.602;10.976;2023-04-25T10:19:30;0.63;;;0.28;;
48199;SDS011;33990;44.602;10.976;2023-04-25T10:24:46;1.00;;;0.40;;
48199;SDS011;33990;44.602;10.976;2023-04-25T10:27:14;0.85;;;0.30;;
48199;SDS011;33990;44.602;10.976;2023-04-25T10:29:41;2.33;;;0.60;;
48199;SDS011;33990;44.602;10.976;2023-04-25T10:32:11;2.42;;;0.68;;
48199;SDS011;33990;44.602;10.976;2023-04-25T10:37:09;2.42;;;0.40;;
48199;SDS011;33990;44.602;10.976;2023-04-25T10:39:41;1.67;;;0.60;;
48199;SDS011;33990;44.602;10.976;2023-04-25T10:42:09;1.23;;;0.47;;
48199;SDS011;33990;44.602;10.976;2023-04-25T10:44:37;4.30;;;0.70;;
48199;SDS011;33990;44.602;10.976;2023-04-25T10:47:06;1.65;;;0.80;;
48199;SDS011;33990;44.602;10.976;2023-04-25T10:49:41;1.73;;;0.50;;
48199;SDS011;33990;44.602;10.976;2023-04-25T10:54:46;1.38;;;0.40;;
48199;SDS011;33990;44.602;10.976;2023-04-25T11:05:10;1.65;;;0.75;;
48199;SDS011;33990;44.602;10.976;2023-04-25T11:07:51;3.70;;;1.05;;
48199;SDS011;33990;44.602;10.976;2023-04-25T11:10:33;3.35;;;0.55;;
48199;SDS011;33990;44.602;10.976;2023-04-25T11:13:03;1.88;;;0.73;;
48199;SDS011;33990;44.602;10.976;2023-04-25T11:15:31;2.80;;;1.02;;
48199;SDS011;33990;44.602;10.976;2023-04-25T11:17:59;2.15;;;0.75;;
48199;SDS011;33990;44.602;10.976;2023-04-25T11:20:26;5.63;;;0.70;;
48199;SDS011;33990;44.602;10.976;2023-04-25T11:22:57;2.60;;;0.75;;
48199;SDS011;33990;44.602;10.976;2023-04-25T11:25:27;1.90;;;0.60;;
48199;SDS011;33990;44.602;10.976;2023-04-25T11:27:56;1.67;;;0.50;;
48199;SDS011;33990;44.602;10.976;2023-04-25T11:30:25;3.65;;;0.85;;
48199;SDS011;33990;44.602;10.976;2023-04-25T11:32:56;3.88;;;1.35;;
48199;SDS011;33990;44.602;10.976;2023-04-25T11:35:23;4.03;;;1.20;;
48199;SDS011;33990;44.602;10.976;2023-04-25T11:37:52;3.10;;;0.82;;
48199;SDS011;33990;44.602;10.976;2023-04-25T11:40:19;2.22;;;0.80;;
48199;SDS011;33990;44.602;10.976;2023-04-25T11:42:47;1.65;;;0.77;;
48199;SDS011;33990;44.602;10.976;2023-04-25T11:45:14;6.72;;;0.95;;
48199;SDS011;33990;44.602;10.976;2023-04-25T11:47:42;2.60;;;0.63;;
48199;SDS011;33990;44.602;10.976;2023-04-25T11:50:09;4.15;;;1.25;;
48199;SDS011;33990;44.602;10.976;2023-04-25T11:52:41;3.25;;;0.75;;
48199;SDS011;33990;44.602;10.976;2023-04-25T11:55:13;1.60;;;0.47;;
48199;SDS011;33990;44.602;10.976;2023-04-25T11:57:41;1.73;;;0.60;;
48199;SDS011;33990;44.602;10.976;2023-04-25T12:00:13;3.10;;;0.90;;
48199;SDS011;33990;44.602;10.976;2023-04-25T12:02:50;1.15;;;0.50;;
48199;SDS011;33990;44.602;10.976;2023-04-25T12:05:26;2.10;;;0.63;;
48199;SDS011;33990;44.602;10.976;2023-04-25T12:10:40;1.90;;;0.70;;
48199;SDS011;33990;44.602;10.976;2023-04-25T12:13:18;0.80;;;0.38;;
48199;SDS011;33990;44.602;10.976;2023-04-25T12:15:47;0.75;;;0.30;;
48199;SDS011;33990;44.602;10.976;2023-04-25T12:18:14;1.60;;;0.68;;
48199;SDS011;33990;44.602;10.976;2023-04-25T12:20:42;1.38;;;0.45;;
48199;SDS011;33990;44.602;10.976;2023-04-25T12:23:09;6.50;;;0.88;;
48199;SDS011;33990;44.602;10.976;2023-04-25T12:25:39;5.65;;;0.90;;
48199;SDS011;33990;44.602;10.976;2023-04-25T12:28:09;5.65;;;0.85;;
48199;SDS011;33990;44.602;10.976;2023-04-25T12:33:29;3.50;;;0.90;;
48199;SDS011;33990;44.602;10.976;2023-04-25T12:35:58;3.22;;;0.60;;
48199;SDS011;33990;44.602;10.976;2023-04-25T12:38:30;2.63;;;0.45;;
48199;SDS011;33990;44.602;10.976;2023-04-25T12:40:58;4.25;;;0.75;;
48199;SDS011;33990;44.602;10.976;2023-04-25T12:43:25;2.30;;;0.60;;
48199;SDS011;33990;44.602;10.976;2023-04-25T12:45:53;3.08;;;0.50;;
48199;SDS011;33990;44.602;10.976;2023-04-25T12:48:22;3.25;;;0.70;;
48199;SDS011;33990;44.602;10.976;2023-04-25T12:50:50;4.82;;;1.10;;
48199;SDS011;33990;44.602;10.976;2023-04-25T12:53:19;2.85;;;0.75;;
48199;SDS011;33990;44.602;10.976;2023-04-25T12:55:47;3.45;;;0.70;;
48199;SDS011;33990;44.602;10.976;2023-04-25T12:58:16;3.53;;;0.73;;
48199;SDS011;33990;44.602;10.976;2023-04-25T13:00:45;2.40;;;0.70;;
48199;SDS011;33990;44.602;10.976;2023-04-25T13:03:13;5.95;;;0.73;;
48199;SDS011;33990;44.602;10.976;2023-04-25T13:05:41;6.30;;;0.80;;
48199;SDS011;33990;44.602;10.976;2023-04-25T13:08:09;4.53;;;0.75;;
48199;SDS011;33990;44.602;10.976;2023-04-25T13:10:36;3.47;;;0.90;;
48199;SDS011;33990;44.602;10.976;2023-04-25T13:13:06;4.95;;;0.80;;
48199;SDS011;33990;44.602;10.976;2023-04-25T13:15:33;4.38;;;0.68;;
48199;SDS011;33990;44.602;10.976;2023-04-25T13:18:00;5.47;;;1.42;;
48199;SDS011;33990;44.602;10.976;2023-04-25T13:20:28;6.22;;;1.08;;
48199;SDS011;33990;44.602;10.976;2023-04-25T13:22:55;3.38;;;1.00;;
48199;SDS011;33990;44.602;10.976;2023-04-25T13:25:22;6.97;;;1.00;;
48199;SDS011;33990;44.602;10.976;2023-04-25T13:27:50;2.17;;;0.50;;
48199;SDS011;33990;44.602;10.976;2023-04-25T13:30:17;10.73;;;2.03;;
48199;SDS011;33990;44.602;10.976;2023-04-25T13:32:45;4.78;;;1.38;;
48199;SDS011;33990;44.602;10.976;2023-04-25T13:35:12;5.35;;;0.82;;
48199;SDS011;33990;44.602;10.976;2023-04-25T13:37:40;3.90;;;0.60;;
48199;SDS011;33990;44.602;10.976;2023-04-25T13:40:08;4.63;;;0.85;;
48199;SDS011;33990;44.602;10.976;2023-04-25T13:42:38;3.47;;;0.77;;
48199;SDS011;33990;44.602;10.976;2023-04-25T13:45:06;2.83;;;0.50;;
48199;SDS011;33990;44.602;10.976;2023-04-25T13:47:34;2.90;;;0.90;;
48199;SDS011;33990;44.602;10.976;2023-04-25T13:50:03;4.85;;;0.70;;
48199;SDS011;33990;44.602;10.976;2023-04-25T13:52:32;3.08;;;0.63;;
48199;SDS011;33990;44.602;10.976;2023-04-25T13:54:59;3.97;;;0.70;;
48199;SDS011;33990;44.602;10.976;2023-04-25T13:57:27;2.65;;;1.00;;
48199;SDS011;33990;44.602;10.976;2023-04-25T13:59:55;3.65;;;0.65;;
48199;SDS011;33990;44.602;10.976;2023-04-25T14:02:22;2.78;;;0.68;;
48199;SDS011;33990;44.602;10.976;2023-04-25T14:04:50;3.47;;;0.40;;
48199;SDS011;33990;44.602;10.976;2023-04-25T14:07:17;4.03;;;0.60;;
48199;SDS011;33990;44.602;10.976;2023-04-25T14:09:46;4.15;;;0.50;;
48199;SDS011;33990;44.602;10.976;2023-04-25T14:12:13;1.58;;;0.40;;
48199;SDS011;33990;44.602;10.976;2023-04-25T14:14:40;0.65;;;0.30;;
48199;SDS011;33990;44.602;10.976;2023-04-25T14:17:08;3.80;;;0.60;;
48199;SDS011;33990;44.602;10.976;2023-04-25T14:19:35;2.00;;;0.50;;
48199;SDS011;33990;44.602;10.976;2023-04-25T14:22:04;1.20;;;0.40;;
48199;SDS011;33990;44.602;10.976;2023-04-25T14:24:31;2.35;;;0.80;;
48199;SDS011;33990;44.602;10.976;2023-04-25T14:26:58;5.57;;;0.77;;
48199;SDS011;33990;44.602;10.976;2023-04-25T14:29:26;1.98;;;0.68;;
48199;SDS011;33990;44.602;10.976;2023-04-25T14:31:53;3.70;;;0.60;;
48199;SDS011;33990;44.602;10.976;2023-04-25T14:34:21;2.08;;;0.60;;
48199;SDS011;33990;44.602;10.976;2023-04-25T14:36:48;3.47;;;1.27;;
48199;SDS011;33990;44.602;10.976;2023-04-25T14:39:15;4.22;;;0.70;;
48199;SDS011;33990;44.602;10.976;2023-04-25T14:41:43;2.10;;;0.63;;
48199;SDS011;33990;44.602;10.976;2023-04-25T14:44:11;3.38;;;0.60;;
48199;SDS011;33990;44.602;10.976;2023-04-25T14:46:38;1.88;;;0.52;;
48199;SDS011;33990;44.602;10.976;2023-04-25T14:49:05;2.05;;;0.40;;
48199;SDS011;33990;44.602;10.976;2023-04-25T14:51:33;4.32;;;0.80;;
48199;SDS011;33990;44.602;10.976;2023-04-25T14:54:00;2.45;;;0.70;;
48199;SDS011;33990;44.602;10.976;2023-04-25T14:56:27;3.38;;;0.80;;
48199;SDS011;33990;44.602;10.976;2023-04-25T14:58:55;3.08;;;0.90;;
48199;SDS011;33990;44.602;10.976;2023-04-25T15:01:22;2.80;;;0.82;;
48199;SDS011;33990;44.602;10.976;2023-04-25T15:03:50;2.63;;;0.73;;
48199;SDS011;33990;44.602;10.976;2023-04-25T15:06:18;2.97;;;0.50;;
48199;SDS011;33990;44.602;10.976;2023-04-25T15:08:45;3.00;;;0.65;;
48199;SDS011;33990;44.602;10.976;2023-04-25T15:11:13;3.83;;;0.80;;
48199;SDS011;33990;44.602;10.976;2023-04-25T15:13:40;2.28;;;0.68;;
48199;SDS011;33990;44.602;10.976;2023-04-25T15:16:07;2.53;;;0.93;;
48199;SDS011;33990;44.602;10.976;2023-04-25T15:18:35;2.33;;;0.88;;